createdAt,value
2018-03-30T00:00:29.586Z,35.90
2018-03-30T00:01:03.480Z,47.15
2018-03-30T00:01:43.456Z,39.83
2018-03-30T00:02:17.350Z,41.25
2018-03-30T00:02:51.244Z,44.17
2018-03-30T00:03:25.148Z,40.12
2018-03-30T00:03:59.033Z,43.95
2018-03-30T00:04:32.897Z,37.40
2018-03-30T00:05:06.774Z,37.22
2018-03-30T00:05:40.646Z,38.83
2018-03-30T00:06:14.523Z,37.83
2018-03-30T00:06:48.426Z,41.78
2018-03-30T00:07:22.329Z,40.30
2018-03-30T00:07:56.243Z,40.00
2018-03-30T00:08:30.122Z,41.15
2018-03-30T00:09:03.987Z,40.80
2018-03-30T00:09:43.747Z,39.70
2018-03-30T00:10:17.641Z,47.40
2018-03-30T00:10:54.333Z,38.22
2018-03-30T00:11:28.203Z,39.83
2018-03-30T00:12:02.081Z,43.97
2018-03-30T00:12:36.132Z,43.10
2018-03-30T00:13:09.997Z,40.97
2018-03-30T00:13:43.875Z,44.42
2018-03-30T00:14:17.739Z,39.78
2018-03-30T00:14:51.617Z,40.33
2018-03-30T00:15:25.489Z,39.78
2018-03-30T00:15:59.358Z,37.78
2018-03-30T00:16:33.227Z,38.97
2018-03-30T00:17:07.095Z,39.47
2018-03-30T00:17:40.948Z,41.70
2018-03-30T00:18:14.854Z,36.95
2018-03-30T00:18:48.726Z,36.08
2018-03-30T00:19:22.605Z,41.78
2018-03-30T00:19:56.637Z,39.22
2018-03-30T00:20:30.547Z,41.15
2018-03-30T00:21:04.436Z,38.15
2018-03-30T00:21:38.345Z,36.33
2018-03-30T00:22:12.443Z,38.00
2018-03-30T00:22:46.411Z,41.42
2018-03-30T00:23:20.334Z,37.63
2018-03-30T00:23:54.217Z,42.53
2018-03-30T00:24:28.106Z,45.00
2018-03-30T00:25:02.035Z,44.17
2018-03-30T00:25:36.018Z,46.13
2018-03-30T00:26:09.935Z,43.90
2018-03-30T00:26:43.834Z,39.92
2018-03-30T00:27:17.725Z,43.63
2018-03-30T00:27:51.619Z,41.78
2018-03-30T00:28:25.480Z,40.83
2018-03-30T00:28:59.374Z,40.72
2018-03-30T00:29:33.310Z,42.83
2018-03-30T00:30:07.193Z,45.33
2018-03-30T00:30:41.072Z,44.40
2018-03-30T00:31:14.958Z,43.83
2018-03-30T00:31:48.841Z,40.70
2018-03-30T00:32:22.725Z,44.83
2018-03-30T00:32:56.590Z,51.22
2018-03-30T00:33:30.483Z,44.92
2018-03-30T00:34:04.581Z,41.35
2018-03-30T00:34:38.457Z,40.97
2018-03-30T00:35:12.336Z,50.10
2018-03-30T00:35:46.248Z,47.80
2018-03-30T00:36:20.104Z,43.30
2018-03-30T00:36:53.980Z,48.38
2018-03-30T00:37:28.250Z,41.50
2018-03-30T00:38:02.172Z,42.40
2018-03-30T00:38:36.028Z,40.80
2018-03-30T00:39:09.912Z,44.08
2018-03-30T00:39:43.792Z,48.50
2018-03-30T00:40:17.681Z,41.50
2018-03-30T00:40:51.568Z,44.63
2018-03-30T00:41:25.735Z,40.80
2018-03-30T00:41:59.599Z,53.92
2018-03-30T00:42:33.876Z,45.92
2018-03-30T00:43:07.792Z,44.88
2018-03-30T00:43:41.676Z,46.35
2018-03-30T00:44:15.534Z,50.90
2018-03-30T00:44:50.249Z,46.85
2018-03-30T00:45:24.123Z,48.08
2018-03-30T00:45:58.019Z,51.97
2018-03-30T00:46:31.905Z,46.75
2018-03-30T00:47:05.777Z,44.67
2018-03-30T00:47:39.679Z,44.08
2018-03-30T00:48:13.553Z,46.47
2018-03-30T00:48:47.432Z,46.10
2018-03-30T00:49:21.452Z,51.53
2018-03-30T00:50:14.522Z,51.05
2018-03-30T00:50:57.640Z,77.87
2018-03-30T00:51:39.535Z,71.35
2018-03-30T00:53:22.536Z,69.78
2018-03-30T00:53:56.417Z,50.30
2018-03-30T00:54:30.848Z,58.30
2018-03-30T00:55:04.829Z,67.90
2018-03-30T01:07:10.931Z,68.45
2018-03-30T01:07:44.802Z,66.12
2018-03-30T01:08:18.685Z,52.05
2018-03-30T01:08:52.620Z,50.22
2018-03-30T01:09:26.517Z,49.58
2018-03-30T01:10:00.414Z,45.88
2018-03-30T01:10:34.286Z,47.08
2018-03-30T01:11:10.090Z,48.75
2018-03-30T01:11:43.970Z,46.80
2018-03-30T01:12:17.860Z,47.80
2018-03-30T01:12:51.725Z,45.12
2018-03-30T01:13:25.592Z,45.70
2018-03-30T01:13:59.473Z,49.33
2018-03-30T01:14:33.334Z,46.95
2018-03-30T01:15:07.205Z,43.65
2018-03-30T01:15:41.110Z,47.00
2018-03-30T01:16:14.983Z,44.78
2018-03-30T01:16:48.860Z,44.88
2018-03-30T01:17:22.757Z,52.28
2018-03-30T01:17:56.653Z,44.67
2018-03-30T01:18:30.539Z,48.40
2018-03-30T01:19:04.466Z,45.33
2018-03-30T01:19:38.352Z,45.88
2018-03-30T01:20:12.219Z,45.58
2018-03-30T01:20:46.139Z,43.72
2018-03-30T01:21:20.033Z,42.65
2018-03-30T01:21:53.917Z,44.10
2018-03-30T01:22:27.995Z,45.17
2018-03-30T01:23:01.875Z,48.03
2018-03-30T01:23:35.754Z,44.53
2018-03-30T01:24:09.632Z,47.17
2018-03-30T01:24:43.504Z,50.65
2018-03-30T01:25:17.367Z,48.03
2018-03-30T01:25:51.242Z,47.15
2018-03-30T01:26:25.110Z,41.88
2018-03-30T01:26:58.987Z,43.47
2018-03-30T01:27:32.874Z,47.78
2018-03-30T01:28:06.721Z,46.42
2018-03-30T01:28:40.591Z,46.60
2018-03-30T01:29:14.463Z,49.70
2018-03-30T01:29:48.336Z,45.88
2018-03-30T01:30:22.223Z,42.58
2018-03-30T01:30:56.101Z,43.53
2018-03-30T01:31:29.981Z,45.70
2018-03-30T01:32:03.850Z,50.35
2018-03-30T01:32:37.748Z,46.35
2018-03-30T01:33:11.647Z,46.10
2018-03-30T01:33:45.531Z,48.17
2018-03-30T01:34:19.408Z,49.00
2018-03-30T01:34:53.299Z,43.87
2018-03-30T01:35:27.181Z,43.85
2018-03-30T01:36:01.063Z,45.45
2018-03-30T01:36:34.937Z,47.05
2018-03-30T01:37:08.829Z,42.90
2018-03-30T01:37:42.738Z,50.55
2018-03-30T01:38:16.605Z,43.20
2018-03-30T01:38:50.481Z,46.08
2018-03-30T01:39:24.340Z,47.03
2018-03-30T01:39:58.223Z,45.28
2018-03-30T01:40:32.101Z,49.00
2018-03-30T01:41:06.001Z,45.60
2018-03-30T01:41:39.901Z,46.55
2018-03-30T01:42:13.765Z,42.58
2018-03-30T01:42:47.669Z,47.47
2018-03-30T01:43:21.541Z,47.70
2018-03-30T01:43:55.420Z,52.10
2018-03-30T01:44:29.289Z,47.85
2018-03-30T01:45:03.166Z,45.25
2018-03-30T01:45:37.038Z,46.60
2018-03-30T01:46:10.958Z,51.47
2018-03-30T01:46:44.908Z,47.15
2018-03-30T01:47:18.742Z,45.40
2018-03-30T01:47:52.671Z,53.28
2018-03-30T01:48:26.550Z,51.08
2018-03-30T01:49:00.433Z,50.20
2018-03-30T01:49:34.303Z,50.20
2018-03-30T01:59:48.258Z,44.20
2018-03-30T02:00:22.108Z,47.10
2018-03-30T02:00:55.984Z,50.50
2018-03-30T02:01:29.854Z,49.08
2018-03-30T02:02:03.754Z,46.55
2018-03-30T02:02:37.625Z,54.47
2018-03-30T02:03:11.489Z,52.10
2018-03-30T02:03:45.370Z,49.05
2018-03-30T02:04:19.238Z,50.35
2018-03-30T02:04:53.129Z,52.47
2018-03-30T02:05:27.040Z,50.42
2018-03-30T02:06:00.906Z,53.38
2018-03-30T02:06:34.782Z,53.28
2018-03-30T02:07:08.663Z,47.13
2018-03-30T02:07:42.535Z,51.03
2018-03-30T02:08:16.464Z,52.10
2018-03-30T02:08:50.357Z,45.78
2018-03-30T02:09:24.237Z,51.70
2018-03-30T02:09:58.152Z,43.22
2018-03-30T02:10:32.026Z,50.10
2018-03-30T02:11:05.917Z,50.03
2018-03-30T02:11:39.812Z,49.45
2018-03-30T02:12:13.694Z,50.15
2018-03-30T02:12:47.550Z,48.42
2018-03-30T02:13:21.431Z,52.72
2018-03-30T02:13:55.310Z,43.45
2018-03-30T02:14:29.237Z,49.97
2018-03-30T02:15:03.130Z,47.25
2018-03-30T02:15:37.023Z,50.95
2018-03-30T02:16:10.914Z,50.50
2018-03-30T02:16:44.791Z,49.72
2018-03-30T02:17:18.661Z,54.03
2018-03-30T02:17:52.533Z,52.40
2018-03-30T02:18:26.432Z,53.75
2018-03-30T02:19:00.306Z,49.75
2018-03-30T02:19:34.178Z,43.28
2018-03-30T02:20:08.073Z,47.72
2018-03-30T02:20:41.966Z,47.08
2018-03-30T02:21:15.845Z,50.33
2018-03-30T02:21:49.726Z,52.47
2018-03-30T02:22:23.624Z,52.20
2018-03-30T02:22:57.503Z,51.00
2018-03-30T02:23:31.375Z,48.65
2018-03-30T02:24:05.271Z,50.47
2018-03-30T02:24:39.144Z,46.45
2018-03-30T02:25:13.021Z,42.65
2018-03-30T02:25:46.896Z,52.67
2018-03-30T02:26:20.773Z,50.67
2018-03-30T02:26:54.674Z,48.15
2018-03-30T02:27:28.561Z,47.75
2018-03-30T02:28:02.431Z,48.13
2018-03-30T02:28:36.292Z,54.45
2018-03-30T02:29:10.185Z,50.85
2018-03-30T02:29:44.061Z,50.38
2018-03-30T02:30:17.948Z,49.58
2018-03-30T02:30:51.844Z,50.65
2018-03-30T02:31:25.709Z,47.05
2018-03-30T02:31:59.588Z,48.35
2018-03-30T02:32:33.448Z,53.60
2018-03-30T02:33:07.337Z,50.08
2018-03-30T02:33:41.211Z,52.92
2018-03-30T02:34:15.106Z,47.03
2018-03-30T02:34:49.006Z,54.20
2018-03-30T02:35:22.921Z,46.15
2018-03-30T02:35:56.789Z,54.63
2018-03-30T02:36:30.665Z,48.08
2018-03-30T02:37:04.545Z,42.35
2018-03-30T02:37:38.407Z,56.90
2018-03-30T02:38:12.370Z,45.20
2018-03-30T02:38:46.241Z,46.97
2018-03-30T02:39:20.131Z,45.35
2018-03-30T02:39:54.010Z,49.63
2018-03-30T02:40:27.913Z,49.92
2018-03-30T02:41:01.809Z,46.03
2018-03-30T02:41:35.705Z,51.80
2018-03-30T02:42:09.600Z,50.92
2018-03-30T02:42:43.495Z,49.65
2018-03-30T02:43:17.386Z,46.42
2018-03-30T02:43:51.257Z,48.50
2018-03-30T02:44:25.126Z,49.38
2018-03-30T02:44:58.999Z,50.75
2018-03-30T02:45:32.917Z,48.47
2018-03-30T02:46:06.795Z,46.67
2018-03-30T02:46:40.877Z,47.75
2018-03-30T02:47:14.757Z,49.17
2018-03-30T02:47:48.711Z,46.78
2018-03-30T02:48:22.595Z,51.65
2018-03-30T02:48:56.478Z,49.70
2018-03-30T02:49:30.363Z,56.15
2018-03-30T02:50:04.242Z,47.47
2018-03-30T02:50:38.138Z,47.05
2018-03-30T02:51:12.039Z,51.92
2018-03-30T02:51:45.920Z,53.25
2018-03-30T02:52:19.851Z,45.00
2018-03-30T02:52:53.907Z,55.85
2018-03-30T02:53:27.826Z,55.33
2018-03-30T02:54:01.719Z,48.22
2018-03-30T02:54:35.588Z,52.05
2018-03-30T02:55:09.474Z,53.78
2018-03-30T02:55:43.377Z,52.03
2018-03-30T02:56:17.268Z,50.88
2018-03-30T02:56:51.158Z,49.85
2018-03-30T02:57:25.044Z,49.22
2018-03-30T02:57:58.909Z,47.25
2018-03-30T02:58:32.782Z,50.25
2018-03-30T02:59:06.670Z,53.95
2018-03-30T02:59:40.526Z,53.83
2018-03-30T03:00:14.398Z,50.05
2018-03-30T03:00:48.289Z,56.70
2018-03-30T03:01:22.173Z,52.25
2018-03-30T03:01:56.039Z,49.53
2018-03-30T03:02:29.920Z,52.60
2018-03-30T03:03:03.791Z,53.17
2018-03-30T03:03:37.669Z,56.20
2018-03-30T03:04:11.570Z,56.83
2018-03-30T03:04:45.528Z,52.95
2018-03-30T03:05:19.418Z,51.67
2018-03-30T03:05:53.322Z,48.97
2018-03-30T03:06:27.187Z,50.38
2018-03-30T03:07:01.055Z,57.20
2018-03-30T03:07:34.930Z,58.85
2018-03-30T03:08:08.796Z,51.00
2018-03-30T03:08:42.864Z,47.92
2018-03-30T03:09:16.737Z,44.10
2018-03-30T03:09:50.610Z,50.00
2018-03-30T03:10:24.469Z,50.45
2018-03-30T03:10:58.352Z,55.45
2018-03-30T03:11:32.239Z,50.42
2018-03-30T03:12:06.130Z,54.53
2018-03-30T03:12:40.001Z,56.40
2018-03-30T03:13:13.861Z,49.38
2018-03-30T03:13:47.731Z,59.03
2018-03-30T03:14:21.599Z,54.45
2018-03-30T03:14:55.481Z,50.70
2018-03-30T03:15:29.374Z,57.70
2018-03-30T03:16:03.383Z,52.40
2018-03-30T03:16:37.303Z,56.75
2018-03-30T03:17:11.193Z,55.40
2018-03-30T03:17:45.049Z,52.97
2018-03-30T03:18:18.933Z,58.83
2018-03-30T03:18:52.856Z,56.28
2018-03-30T03:19:26.739Z,52.10
2018-03-30T03:20:00.620Z,50.80
2018-03-30T03:20:34.489Z,57.42
2018-03-30T03:21:08.364Z,51.70
2018-03-30T03:21:42.237Z,50.10
2018-03-30T03:22:16.107Z,50.90
2018-03-30T03:22:50.018Z,52.88
2018-03-30T03:23:23.900Z,60.33
2018-03-30T03:23:57.763Z,51.55
2018-03-30T03:24:31.637Z,56.97
2018-03-30T03:25:05.550Z,50.45
2018-03-30T03:25:39.414Z,51.70
2018-03-30T03:26:13.292Z,54.28
2018-03-30T03:26:47.164Z,59.78
2018-03-30T03:27:21.047Z,52.88
2018-03-30T03:27:54.910Z,48.72
2018-03-30T03:28:28.784Z,55.95
2018-03-30T03:29:02.654Z,52.67
2018-03-30T03:29:36.533Z,56.00
2018-03-30T03:30:10.393Z,48.10
2018-03-30T03:30:44.265Z,51.97
2018-03-30T03:31:18.137Z,58.25
2018-03-30T03:31:51.993Z,52.55
2018-03-30T03:32:25.865Z,51.78
2018-03-30T03:32:59.748Z,49.95
2018-03-30T03:33:33.613Z,53.45
2018-03-30T03:34:07.483Z,54.97
2018-03-30T03:34:41.636Z,51.13
2018-03-30T03:35:15.499Z,53.03
2018-03-30T03:35:49.396Z,49.83
2018-03-30T03:36:23.288Z,55.12
2018-03-30T03:36:57.160Z,50.95
2018-03-30T03:37:31.046Z,63.28
2018-03-30T03:38:04.920Z,55.40
2018-03-30T03:38:38.789Z,49.75
2018-03-30T03:39:12.663Z,55.70
2018-03-30T03:39:46.559Z,50.38
2018-03-30T03:40:20.427Z,49.60
2018-03-30T03:40:54.312Z,49.38
2018-03-30T03:41:28.221Z,48.65
2018-03-30T03:42:02.101Z,48.45
2018-03-30T03:42:35.969Z,61.88
2018-03-30T03:43:09.834Z,53.47
2018-03-30T03:43:43.713Z,51.58
2018-03-30T03:44:17.596Z,46.65
2018-03-30T03:44:51.496Z,51.97
2018-03-30T03:45:25.378Z,54.08
2018-03-30T03:45:59.255Z,52.78
2018-03-30T03:46:33.137Z,51.90
2018-03-30T03:47:07.000Z,56.67
2018-03-30T03:47:40.890Z,49.80
2018-03-30T03:48:14.773Z,56.30
2018-03-30T03:48:48.664Z,50.35
2018-03-30T03:49:22.537Z,56.20
2018-03-30T03:49:56.509Z,47.92
2018-03-30T03:50:30.390Z,48.60
2018-03-30T03:51:04.265Z,53.28
2018-03-30T03:51:38.140Z,50.95
2018-03-30T03:52:12.014Z,54.92
2018-03-30T03:52:45.892Z,53.60
2018-03-30T03:53:19.779Z,54.70
2018-03-30T03:53:53.664Z,52.13
2018-03-30T03:54:27.645Z,51.58
2018-03-30T03:55:01.520Z,50.63
2018-03-30T03:55:35.927Z,51.05
2018-03-30T03:56:09.807Z,51.63
2018-03-30T03:56:43.701Z,47.40
2018-03-30T03:57:17.581Z,51.63
2018-03-30T03:57:51.467Z,52.08
2018-03-30T03:58:25.338Z,50.12
2018-03-30T03:58:59.207Z,49.10
2018-03-30T03:59:33.068Z,46.75
2018-03-30T04:00:06.943Z,45.05
2018-03-30T04:00:40.830Z,57.22
2018-03-30T04:01:14.722Z,50.80
2018-03-30T04:01:48.609Z,55.22
2018-03-30T04:02:22.476Z,52.83
2018-03-30T04:02:56.352Z,50.22
2018-03-30T04:03:30.227Z,48.10
2018-03-30T04:04:04.114Z,48.60
2018-03-30T04:04:37.974Z,49.60
2018-03-30T04:05:11.838Z,47.20
2018-03-30T04:05:45.710Z,46.70
2018-03-30T04:06:19.640Z,51.95
2018-03-30T04:06:53.493Z,48.87
2018-03-30T04:07:27.368Z,46.00
2018-03-30T04:08:01.257Z,53.83
2018-03-30T04:08:35.157Z,56.08
2018-03-30T04:09:09.052Z,49.22
2018-03-30T04:09:42.947Z,44.80
2018-03-30T04:10:16.842Z,48.47
2018-03-30T04:10:50.742Z,50.20
2018-03-30T04:11:24.632Z,45.90
2018-03-30T04:11:58.525Z,46.00
2018-03-30T04:12:32.420Z,49.45
2018-03-30T04:13:06.315Z,51.60
2018-03-30T04:13:40.188Z,47.40
2018-03-30T04:14:14.063Z,44.10
2018-03-30T04:14:47.971Z,46.37
2018-03-30T04:15:21.837Z,47.97
2018-03-30T04:15:55.710Z,52.05
2018-03-30T04:16:29.580Z,48.15
2018-03-30T04:17:03.476Z,50.12
2018-03-30T04:17:37.342Z,54.33
2018-03-30T04:18:11.205Z,53.58
2018-03-30T04:18:45.101Z,52.90
2018-03-30T04:19:18.997Z,48.97
2018-03-30T04:19:52.869Z,48.72
2018-03-30T04:20:26.738Z,48.45
2018-03-30T04:21:00.621Z,48.42
2018-03-30T04:21:34.492Z,45.70
2018-03-30T04:22:08.535Z,52.13
2018-03-30T04:22:42.421Z,50.17
2018-03-30T04:23:16.315Z,46.15
2018-03-30T04:23:50.197Z,63.97
2018-03-30T04:24:24.074Z,55.25
2018-03-30T04:24:57.949Z,49.38
2018-03-30T04:25:31.817Z,49.50
2018-03-30T04:26:05.729Z,47.00
2018-03-30T04:26:39.802Z,53.00
2018-03-30T04:27:13.757Z,55.15
2018-03-30T04:27:48.538Z,48.50
2018-03-30T04:28:22.397Z,52.62
2018-03-30T04:28:56.288Z,52.53
2018-03-30T04:29:30.180Z,52.28
2018-03-30T04:30:04.038Z,53.10
2018-03-30T04:30:37.909Z,54.80
2018-03-30T04:31:11.771Z,58.58
2018-03-30T04:31:45.653Z,52.03
2018-03-30T04:32:19.570Z,54.88
2018-03-30T04:32:53.440Z,51.17
2018-03-30T04:33:27.326Z,56.13
2018-03-30T04:34:01.202Z,49.97
2018-03-30T04:34:35.083Z,50.35
2018-03-30T04:35:08.965Z,55.97
2018-03-30T04:35:42.842Z,54.40
2018-03-30T04:36:16.720Z,54.10
2018-03-30T04:36:50.585Z,56.28
2018-03-30T04:37:24.468Z,56.40
2018-03-30T04:37:58.373Z,53.42
2018-03-30T04:38:32.276Z,47.67
2018-03-30T04:39:06.182Z,45.75
2018-03-30T04:39:40.042Z,52.20
2018-03-30T04:40:13.913Z,52.33
2018-03-30T04:40:47.781Z,54.05
2018-03-30T04:41:21.801Z,59.67
2018-03-30T04:41:55.877Z,56.97
2018-03-30T04:42:29.817Z,51.72
2018-03-30T04:43:03.792Z,53.55
2018-03-30T04:43:37.671Z,54.22
2018-03-30T04:44:11.552Z,48.87
2018-03-30T04:44:45.419Z,51.20
2018-03-30T04:45:19.276Z,58.28
2018-03-30T04:45:53.163Z,57.13
2018-03-30T04:46:27.018Z,58.30
2018-03-30T04:47:00.923Z,50.25
2018-03-30T04:47:34.964Z,57.03
2018-03-30T04:48:08.949Z,61.25
2018-03-30T04:48:42.846Z,50.33
2018-03-30T04:49:16.786Z,53.33
2018-03-30T04:49:50.659Z,50.70
2018-03-30T04:50:24.647Z,54.58
2018-03-30T04:50:58.522Z,49.30
2018-03-30T04:51:32.419Z,54.50
2018-03-30T04:52:06.317Z,49.47
2018-03-30T04:52:40.235Z,51.22
2018-03-30T04:53:14.130Z,61.22
2018-03-30T04:53:47.997Z,54.38
2018-03-30T04:54:21.893Z,54.30
2018-03-30T04:54:55.793Z,58.30
2018-03-30T04:55:29.697Z,62.10
2018-03-30T04:56:05.444Z,53.40
2018-03-30T04:56:39.420Z,55.47
2018-03-30T04:57:13.338Z,54.05
2018-03-30T04:57:47.319Z,52.58
2018-03-30T04:58:21.204Z,48.72
2018-03-30T04:58:55.091Z,48.92
2018-03-30T04:59:28.947Z,54.58
2018-03-30T05:00:02.827Z,52.40
2018-03-30T05:00:36.688Z,54.28
2018-03-30T05:01:10.697Z,52.50
2018-03-30T05:01:44.571Z,53.20
2018-03-30T05:02:18.465Z,49.08
2018-03-30T05:02:52.804Z,53.17
2018-03-30T05:03:26.685Z,55.08
2018-03-30T05:04:00.559Z,51.10
2018-03-30T05:04:34.499Z,50.45
2018-03-30T05:05:08.388Z,46.20
2018-03-30T05:05:42.263Z,50.05
2018-03-30T05:06:16.129Z,50.20
2018-03-30T05:06:49.990Z,48.50
2018-03-30T05:07:23.950Z,49.95
2018-03-30T05:07:57.831Z,47.45
2018-03-30T05:08:31.688Z,48.65
2018-03-30T05:09:05.573Z,51.37
2018-03-30T05:09:39.458Z,51.72
2018-03-30T05:10:13.340Z,47.62
2018-03-30T05:10:47.216Z,45.25
2018-03-30T05:11:21.096Z,44.17
2018-03-30T05:11:54.962Z,54.30
2018-03-30T05:12:28.854Z,49.28
2018-03-30T05:13:02.749Z,47.65
2018-03-30T05:13:36.694Z,46.92
2018-03-30T05:14:10.576Z,46.75
2018-03-30T05:14:44.473Z,51.15
2018-03-30T05:15:18.351Z,46.28
2018-03-30T05:15:52.264Z,45.22
2018-03-30T05:16:26.164Z,47.53
2018-03-30T05:17:00.101Z,41.90
2018-03-30T05:17:33.949Z,47.95
2018-03-30T05:18:07.838Z,40.63
2018-03-30T05:18:41.707Z,45.08
2018-03-30T05:19:15.579Z,41.42
2018-03-30T05:19:49.483Z,44.15
2018-03-30T05:20:23.354Z,46.30
2018-03-30T05:20:57.225Z,45.63
2018-03-30T05:21:31.094Z,41.80
2018-03-30T05:22:05.005Z,42.58
2018-03-30T05:22:38.844Z,46.50
2018-03-30T05:23:12.727Z,44.25
2018-03-30T05:23:46.648Z,43.83
2018-03-30T05:24:20.519Z,43.90
2018-03-30T05:24:54.372Z,46.42
2018-03-30T05:25:28.242Z,44.45
2018-03-30T05:26:02.107Z,46.95
2018-03-30T05:26:35.997Z,39.95
2018-03-30T05:27:09.935Z,43.25
2018-03-30T05:27:43.811Z,43.67
2018-03-30T05:28:17.700Z,40.45
2018-03-30T05:28:51.572Z,41.83
2018-03-30T05:29:25.445Z,42.72
2018-03-30T05:29:59.323Z,41.47
2018-03-30T05:30:33.197Z,42.67
2018-03-30T05:31:07.069Z,40.97
2018-03-30T05:31:40.958Z,44.35
2018-03-30T05:32:14.834Z,44.90
2018-03-30T05:32:48.733Z,41.83
2018-03-30T05:33:22.642Z,38.47
2018-03-30T05:33:56.523Z,41.97
2018-03-30T05:34:30.469Z,40.75
2018-03-30T05:35:04.373Z,41.42
2018-03-30T05:35:38.259Z,37.63
2018-03-30T05:36:12.126Z,39.35
2018-03-30T05:36:45.996Z,37.03
2018-03-30T05:37:19.885Z,40.42
2018-03-30T05:37:53.765Z,36.33
2018-03-30T05:38:27.639Z,41.75
2018-03-30T05:39:01.509Z,38.70
2018-03-30T05:39:35.407Z,41.35
2018-03-30T05:40:09.284Z,39.22
2018-03-30T05:40:43.149Z,41.88
2018-03-30T05:41:17.110Z,42.38
2018-03-30T05:41:50.983Z,43.17
2018-03-30T05:42:24.837Z,37.85
2018-03-30T05:42:58.738Z,40.22
2018-03-30T05:43:32.653Z,37.95
2018-03-30T05:44:06.526Z,40.95
2018-03-30T05:44:40.454Z,39.00
2018-03-30T05:45:14.331Z,37.60
2018-03-30T05:45:48.246Z,36.25
2018-03-30T05:46:22.096Z,37.83
2018-03-30T05:46:55.986Z,39.47
2018-03-30T05:47:29.851Z,36.00
2018-03-30T05:48:03.732Z,38.78
2018-03-30T05:48:37.633Z,33.45
2018-03-30T05:49:11.510Z,36.65
2018-03-30T05:49:45.404Z,41.72
2018-03-30T05:50:19.285Z,38.15
2018-03-30T05:50:53.152Z,35.60
2018-03-30T05:51:27.034Z,46.05
2018-03-30T05:52:00.890Z,41.08
2018-03-30T05:52:34.771Z,43.47
2018-03-30T05:53:08.667Z,40.67
2018-03-30T05:53:42.541Z,39.42
2018-03-30T05:54:16.464Z,38.42
2018-03-30T05:54:50.371Z,45.30
2018-03-30T05:55:24.226Z,42.62
2018-03-30T05:55:58.105Z,42.15
2018-03-30T05:56:31.960Z,40.55
2018-03-30T05:57:05.832Z,37.78
2018-03-30T05:57:39.734Z,40.20
2018-03-30T05:58:13.626Z,40.15
2018-03-30T05:58:47.515Z,38.88
2018-03-30T05:59:21.495Z,37.28
2018-03-30T05:59:55.368Z,38.55
2018-03-30T06:00:29.239Z,38.05
2018-03-30T06:01:03.108Z,39.45
2018-03-30T06:01:36.977Z,38.72
2018-03-30T06:02:10.880Z,41.25
2018-03-30T06:02:44.876Z,38.45
2018-03-30T06:03:18.758Z,39.63
2018-03-30T06:03:52.644Z,39.17
2018-03-30T06:04:26.529Z,38.03
2018-03-30T06:05:00.418Z,37.05
2018-03-30T06:05:34.285Z,35.42
2018-03-30T06:06:08.157Z,31.83
2018-03-30T06:06:42.041Z,36.67
2018-03-30T06:07:15.942Z,37.65
2018-03-30T06:07:49.873Z,34.83
2018-03-30T06:08:23.895Z,36.05
2018-03-30T06:08:57.825Z,33.88
2018-03-30T06:09:31.717Z,34.80
2018-03-30T06:10:05.613Z,31.55
2018-03-30T06:10:39.484Z,33.50
2018-03-30T06:11:13.365Z,31.67
2018-03-30T06:11:47.255Z,32.28
2018-03-30T06:12:21.117Z,33.80
2018-03-30T06:12:54.987Z,33.63
2018-03-30T06:13:28.925Z,34.45
2018-03-30T06:14:02.784Z,32.22
2018-03-30T06:14:36.648Z,34.35
2018-03-30T06:15:10.526Z,35.85
2018-03-30T06:15:44.419Z,35.97
2018-03-30T06:16:18.313Z,32.15
2018-03-30T06:16:52.188Z,36.20
2018-03-30T06:17:26.053Z,32.30
2018-03-30T06:17:59.917Z,36.72
2018-03-30T06:18:33.797Z,36.17
2018-03-30T06:19:07.690Z,33.15
2018-03-30T06:19:41.561Z,36.65
2018-03-30T06:20:15.418Z,33.70
2018-03-30T06:20:49.283Z,33.45
2018-03-30T06:21:23.154Z,31.58
2018-03-30T06:21:57.156Z,34.35
2018-03-30T06:22:31.040Z,33.05
2018-03-30T06:23:04.931Z,32.72
2018-03-30T06:23:38.808Z,34.22
2018-03-30T06:24:12.722Z,33.25
2018-03-30T06:24:46.620Z,33.53
2018-03-30T06:25:20.537Z,33.08
2018-03-30T06:25:54.401Z,32.85
2018-03-30T06:26:28.309Z,31.73
2018-03-30T06:27:02.262Z,32.78
2018-03-30T06:27:36.156Z,38.00
2018-03-30T06:28:10.081Z,31.70
2018-03-30T06:28:44.612Z,30.10
2018-03-30T06:29:18.497Z,36.28
2018-03-30T06:29:52.393Z,36.58
2018-03-30T06:30:26.292Z,32.17
2018-03-30T06:31:00.181Z,33.75
2018-03-30T06:31:34.041Z,37.72
2018-03-30T06:32:07.912Z,36.25
2018-03-30T06:32:41.802Z,33.88
2018-03-30T06:33:15.660Z,33.10
2018-03-30T06:33:49.554Z,32.05
2018-03-30T06:34:23.449Z,34.13
2018-03-30T06:34:57.348Z,35.75
2018-03-30T06:35:31.238Z,33.72
2018-03-30T06:36:05.125Z,28.35
2018-03-30T06:36:39.036Z,34.42
2018-03-30T06:37:12.921Z,31.00
2018-03-30T06:37:47.095Z,31.70
2018-03-30T06:38:20.991Z,29.12
2018-03-30T06:38:54.909Z,34.03
2018-03-30T06:39:28.811Z,33.50
2018-03-30T06:40:02.705Z,31.65
2018-03-30T06:40:36.609Z,28.08
2018-03-30T06:41:10.491Z,32.28
2018-03-30T06:41:44.373Z,29.90
2018-03-30T06:42:18.260Z,29.65
2018-03-30T06:42:52.148Z,30.23
2018-03-30T06:43:26.036Z,31.08
2018-03-30T06:43:59.901Z,29.37
2018-03-30T06:44:33.796Z,31.62
2018-03-30T06:45:07.673Z,34.35
2018-03-30T06:45:41.542Z,32.70
2018-03-30T06:46:15.422Z,35.88
2018-03-30T06:46:49.300Z,32.67
2018-03-30T06:47:23.237Z,38.95
2018-03-30T06:47:57.122Z,33.38
2018-03-30T06:48:30.987Z,34.20
2018-03-30T06:49:04.855Z,34.40
2018-03-30T06:49:38.721Z,34.92
2018-03-30T06:50:12.609Z,34.10
2018-03-30T06:50:46.534Z,37.22
2018-03-30T06:51:20.433Z,36.13
2018-03-30T06:51:54.320Z,32.97
2018-03-30T06:52:28.182Z,33.65
2018-03-30T06:53:02.068Z,33.28
2018-03-30T06:53:35.959Z,29.10
2018-03-30T06:54:09.829Z,30.70
2018-03-30T06:54:43.773Z,29.27
2018-03-30T06:55:17.652Z,34.75
2018-03-30T06:55:51.554Z,30.48
2018-03-30T06:56:25.426Z,31.05
2018-03-30T06:56:59.302Z,32.40
2018-03-30T06:57:33.170Z,28.65
2018-03-30T06:58:07.047Z,29.85
2018-03-30T06:58:40.914Z,30.88
2018-03-30T06:59:14.810Z,30.40
2018-03-30T06:59:48.708Z,29.15
2018-03-30T07:00:22.613Z,26.52
2018-03-30T07:00:56.480Z,27.98
2018-03-30T07:01:30.357Z,27.42
2018-03-30T07:02:04.246Z,26.45
2018-03-30T07:02:38.116Z,27.13
2018-03-30T07:03:11.971Z,26.80
2018-03-30T07:03:45.835Z,30.30
2018-03-30T07:04:19.706Z,27.42
2018-03-30T07:04:53.575Z,27.60
2018-03-30T07:05:27.558Z,27.73
2018-03-30T07:06:01.431Z,28.38
2018-03-30T07:06:35.298Z,28.60
2018-03-30T07:07:09.181Z,30.65
2018-03-30T07:07:43.045Z,28.25
2018-03-30T07:08:17.693Z,25.48
2018-03-30T07:08:51.567Z,26.80
2018-03-30T07:09:25.455Z,23.58
2018-03-30T07:09:59.367Z,23.25
2018-03-30T07:10:33.238Z,21.05
2018-03-30T07:11:07.160Z,23.40
2018-03-30T07:11:41.051Z,21.52
2018-03-30T07:12:14.941Z,21.62
2018-03-30T07:12:48.839Z,21.70
2018-03-30T07:13:22.736Z,20.33
2018-03-30T07:13:56.903Z,28.05
2018-03-30T07:14:30.782Z,25.98
2018-03-30T07:15:04.692Z,29.35
2018-03-30T07:15:38.561Z,30.55
2018-03-30T07:16:12.648Z,27.55
2018-03-30T07:16:46.619Z,27.13
2018-03-30T07:17:20.500Z,28.83
2018-03-30T07:17:54.393Z,31.23
2018-03-30T07:18:28.272Z,31.48
2018-03-30T07:19:02.153Z,27.27
2018-03-30T07:19:36.062Z,27.87
2018-03-30T07:20:09.946Z,29.75
2018-03-30T07:20:43.831Z,35.55
2018-03-30T07:21:17.712Z,29.08
2018-03-30T07:21:51.596Z,33.40
2018-03-30T07:22:25.492Z,26.35
2018-03-30T07:22:59.406Z,29.85
2018-03-30T07:23:33.315Z,26.50
2018-03-30T07:24:07.331Z,29.25
2018-03-30T07:24:41.207Z,26.10
2018-03-30T07:25:15.095Z,25.98
2018-03-30T07:25:48.976Z,25.45
2018-03-30T07:26:22.858Z,25.98
2018-03-30T07:26:56.859Z,24.48
2018-03-30T07:27:30.796Z,20.70
2018-03-30T07:28:04.666Z,21.65
2018-03-30T07:28:38.654Z,22.77
2018-03-30T07:29:12.562Z,26.50
2018-03-30T07:29:46.803Z,23.60
2018-03-30T07:30:20.694Z,21.90
2018-03-30T07:30:54.668Z,24.20
2018-03-30T07:31:28.585Z,26.85
2018-03-30T07:32:02.484Z,27.75
2018-03-30T07:32:36.350Z,27.10
2018-03-30T07:33:10.249Z,25.40
2018-03-30T07:33:44.156Z,26.25
2018-03-30T07:34:18.019Z,28.38
2018-03-30T07:34:51.901Z,24.90
2018-03-30T07:35:25.805Z,26.40
2018-03-30T07:35:59.713Z,27.62
2018-03-30T07:36:33.601Z,30.37
2018-03-30T07:37:07.513Z,24.10
2018-03-30T07:37:41.947Z,24.12
2018-03-30T07:38:15.866Z,22.73
2018-03-30T07:38:49.725Z,20.92
2018-03-30T07:39:23.675Z,25.37
2018-03-30T07:39:57.584Z,26.55